createdAt,value
2018-03-19T00:01:52.779Z,0.20
2018-03-19T00:04:20.351Z,0.40
2018-03-19T00:06:47.916Z,0.30
2018-03-19T00:09:15.454Z,0.20
2018-03-19T00:11:42.982Z,0.20
2018-03-19T00:14:10.554Z,0.30
2018-03-19T00:16:38.089Z,0.20
2018-03-19T00:19:05.641Z,0.30
2018-03-19T00:21:33.217Z,0.40
2018-03-19T00:24:00.751Z,0.30
2018-03-19T00:26:28.303Z,0.10
2018-03-19T00:28:55.862Z,0.10
2018-03-19T00:31:23.389Z,0.20
2018-03-19T00:33:50.935Z,0.20
2018-03-19T00:36:19.238Z,0.10
2018-03-19T00:38:46.778Z,0.10
2018-03-19T00:41:14.307Z,0.10
2018-03-19T00:43:41.847Z,0.10
2018-03-19T00:46:09.386Z,0.10
2018-03-19T00:48:36.940Z,0.00
2018-03-19T00:51:04.494Z,0.00
2018-03-19T00:53:32.023Z,0.00
2018-03-19T00:55:59.551Z,0.00
2018-03-19T00:58:27.093Z,0.00
2018-03-19T01:00:54.626Z,0.00
2018-03-19T01:03:22.179Z,0.00
2018-03-19T01:05:49.744Z,0.00
2018-03-19T01:08:17.310Z,0.00
2018-03-19T01:10:44.864Z,0.20
2018-03-19T01:13:12.387Z,0.00
2018-03-19T01:15:40.803Z,-0.20
2018-03-19T01:18:08.359Z,-0.30
2018-03-19T01:20:35.923Z,-0.20
2018-03-19T01:23:03.432Z,-0.20
2018-03-19T01:25:31.726Z,-0.30
2018-03-19T01:28:00.029Z,-0.30
2018-03-19T01:30:27.573Z,-0.30
2018-03-19T01:32:55.319Z,-0.40
2018-03-19T01:35:23.601Z,-0.40
2018-03-19T01:37:51.910Z,-0.50
2018-03-19T01:40:19.429Z,-0.50
2018-03-19T01:42:47.752Z,-0.40
2018-03-19T01:45:15.283Z,-0.50
2018-03-19T01:47:42.804Z,-0.50
2018-03-19T01:50:10.336Z,-0.60
2018-03-19T01:52:48.695Z,-0.50
2018-03-19T01:55:17.036Z,-0.50
2018-03-19T01:57:44.584Z,-0.50
2018-03-19T02:00:12.153Z,-0.50
2018-03-19T02:02:39.687Z,-0.50
2018-03-19T02:05:07.253Z,-0.50
2018-03-19T02:07:34.803Z,-0.60
2018-03-19T02:10:02.335Z,-0.60
2018-03-19T02:12:29.878Z,-0.60
2018-03-19T02:14:58.166Z,-0.50
2018-03-19T02:17:26.476Z,-0.40
2018-03-19T02:19:54.014Z,-0.40
2018-03-19T02:22:21.568Z,-0.30
2018-03-19T02:24:49.113Z,-0.30
2018-03-19T02:27:17.409Z,-0.30
2018-03-19T02:29:44.952Z,-0.30
2018-03-19T02:32:13.270Z,-0.30
2018-03-19T02:37:05.946Z,-0.40
2018-03-19T02:39:34.304Z,-0.50
2018-03-19T02:42:01.852Z,-0.60
2018-03-19T02:44:29.413Z,-0.60
2018-03-19T02:46:57.047Z,-0.60
2018-03-19T02:49:24.513Z,-0.80
2018-03-19T02:51:52.836Z,-0.70
2018-03-19T02:54:20.372Z,-0.70
2018-03-19T02:56:47.922Z,-0.80
2018-03-19T02:59:15.457Z,-0.80
2018-03-19T03:01:43.977Z,-0.80
2018-03-19T03:04:11.537Z,-0.80
2018-03-19T03:06:39.086Z,-0.80
2018-03-19T03:09:06.626Z,-0.80
2018-03-19T03:11:34.184Z,-0.80
2018-03-19T03:14:01.714Z,-0.70
2018-03-19T03:16:29.272Z,-0.60
2018-03-19T03:18:56.825Z,-0.70
2018-03-19T03:21:24.380Z,-0.80
2018-03-19T03:23:51.907Z,-0.70
2018-03-19T03:26:19.477Z,-0.70
2018-03-19T03:28:47.026Z,-0.80
2018-03-19T03:31:20.436Z,-0.80
2018-03-19T03:33:47.963Z,-0.90
2018-03-19T03:36:15.503Z,-0.90
2018-03-19T03:38:43.814Z,-0.90
2018-03-19T03:41:11.333Z,-0.90
2018-03-19T03:43:39.655Z,-0.90
2018-03-19T03:46:08.063Z,-1.00
2018-03-19T03:48:35.736Z,-0.90
2018-03-19T03:51:03.277Z,-1.00
2018-03-19T03:53:30.840Z,-1.00
2018-03-19T03:55:58.370Z,-1.20
2018-03-19T03:58:25.937Z,-1.10
2018-03-19T04:00:53.463Z,-1.10
2018-03-19T04:03:20.992Z,-1.00
2018-03-19T04:05:48.548Z,-1.00
2018-03-19T04:08:16.090Z,-0.90
2018-03-19T04:10:43.633Z,-0.80
2018-03-19T04:13:11.189Z,-0.90
2018-03-19T04:15:38.729Z,-0.90
2018-03-19T04:18:06.283Z,-1.00
2018-03-19T04:20:33.816Z,-1.00
2018-03-19T04:23:02.145Z,-1.00
2018-03-19T04:25:29.689Z,-1.00
2018-03-19T04:27:57.214Z,-1.10
2018-03-19T04:30:25.527Z,-1.20
2018-03-19T04:32:53.068Z,-1.20
2018-03-19T04:35:20.615Z,-1.10
2018-03-19T04:37:48.896Z,-1.10
2018-03-19T04:40:16.428Z,-1.10
2018-03-19T04:42:43.959Z,-1.20
2018-03-19T04:45:11.484Z,-1.20
2018-03-19T04:47:38.997Z,-1.30
2018-03-19T04:50:06.552Z,-1.30
2018-03-19T04:52:34.075Z,-1.50
2018-03-19T04:55:01.640Z,-1.50
2018-03-19T04:57:29.170Z,-1.40
2018-03-19T04:59:56.734Z,-1.40
2018-03-19T05:02:24.263Z,-1.30
2018-03-19T05:04:52.588Z,-1.20
2018-03-19T05:07:20.351Z,-1.20
2018-03-19T05:09:47.909Z,-1.20
2018-03-19T05:12:15.438Z,-1.20
2018-03-19T05:14:43.757Z,-1.50
2018-03-19T05:17:11.302Z,-1.50
2018-03-19T05:19:38.846Z,-1.50
2018-03-19T05:22:06.395Z,-1.50
2018-03-19T05:24:33.934Z,-1.50
2018-03-19T05:27:01.482Z,-1.60
2018-03-19T05:29:29.025Z,-1.50
2018-03-19T05:31:56.576Z,-1.40
2018-03-19T05:34:24.115Z,-1.30
2018-03-19T05:36:51.674Z,-1.20
2018-03-19T05:39:19.207Z,-1.20
2018-03-19T05:41:47.518Z,-1.40
2018-03-19T05:44:15.046Z,-1.40
2018-03-19T05:46:42.628Z,-1.30
2018-03-19T05:49:10.186Z,-1.40
2018-03-19T05:51:37.724Z,-1.30
2018-03-19T05:54:05.308Z,-1.30
2018-03-19T05:56:32.870Z,-1.30
2018-03-19T05:59:00.407Z,-1.20
2018-03-19T06:01:27.947Z,-1.10
2018-03-19T06:03:55.543Z,-1.10
2018-03-19T06:06:23.077Z,-1.00
2018-03-19T06:08:51.371Z,-1.10
2018-03-19T06:11:18.929Z,-1.10
2018-03-19T06:13:46.467Z,-1.20
2018-03-19T06:16:14.764Z,-1.00
2018-03-19T06:18:42.289Z,-1.10
2018-03-19T06:21:10.588Z,-1.10
2018-03-19T06:23:38.154Z,-1.10
2018-03-19T06:26:05.698Z,-1.00
2018-03-19T06:28:33.261Z,-0.90
2018-03-19T06:31:00.818Z,-0.90
2018-03-19T06:33:28.385Z,-1.00
2018-03-19T06:35:55.927Z,-0.90
2018-03-19T06:38:24.261Z,-0.90
2018-03-19T06:40:51.813Z,-0.90
2018-03-19T06:43:20.131Z,-0.80
2018-03-19T06:45:47.663Z,-0.80
2018-03-19T06:48:15.979Z,-0.70
2018-03-19T06:50:44.393Z,-0.60
2018-03-19T06:53:11.969Z,-0.70
2018-03-19T06:55:39.512Z,-0.60
2018-03-19T06:58:07.072Z,-0.50
2018-03-19T07:00:34.606Z,-0.60
2018-03-19T07:03:02.141Z,-0.70
2018-03-19T07:05:29.747Z,-0.70
2018-03-19T07:07:57.317Z,-0.60
2018-03-19T07:10:24.861Z,-0.30
2018-03-19T07:12:52.402Z,-0.30
2018-03-19T07:15:19.939Z,-0.20
2018-03-19T07:17:48.285Z,-0.10
2018-03-19T07:20:15.819Z,-0.20
2018-03-19T07:22:43.343Z,0.10
2018-03-19T07:25:11.665Z,0.10
2018-03-19T07:27:39.186Z,0.10
2018-03-19T07:30:06.725Z,0.00
2018-03-19T07:32:35.036Z,0.20
2018-03-19T07:35:02.575Z,0.10
2018-03-19T07:37:30.878Z,0.20
2018-03-19T07:39:58.417Z,0.20
2018-03-19T07:42:25.933Z,0.30
2018-03-19T07:44:53.469Z,0.50
2018-03-19T07:47:21.017Z,0.70
2018-03-19T07:49:48.577Z,1.00
2018-03-19T07:52:16.110Z,1.00
2018-03-19T07:54:44.411Z,1.30
2018-03-19T07:57:11.993Z,1.30
2018-03-19T07:59:39.535Z,1.30
2018-03-19T08:02:07.085Z,1.60
2018-03-19T08:04:34.640Z,1.60
2018-03-19T08:07:02.183Z,1.60
2018-03-19T08:09:30.504Z,2.20
2018-03-19T08:11:58.024Z,2.20
2018-03-19T08:14:25.579Z,2.70
2018-03-19T08:16:53.115Z,3.30
2018-03-19T08:19:21.438Z,3.80
2018-03-19T08:21:48.986Z,3.90
2018-03-19T08:24:16.537Z,3.70
2018-03-19T08:26:44.073Z,3.90
2018-03-19T08:29:12.370Z,4.50
2018-03-19T08:31:39.953Z,4.40
2018-03-19T08:34:07.504Z,4.90
2018-03-19T08:36:35.079Z,5.20
2018-03-19T08:39:02.600Z,5.20
2018-03-19T08:41:30.901Z,5.70
2018-03-19T08:43:58.443Z,5.70
2018-03-19T08:46:25.988Z,5.80
2018-03-19T08:48:54.341Z,6.20
2018-03-19T08:51:21.857Z,6.20
2018-03-19T08:53:49.380Z,6.10
2018-03-19T08:56:17.710Z,6.00
2018-03-19T08:58:45.256Z,6.00
2018-03-19T09:01:12.889Z,6.00
2018-03-19T09:03:40.440Z,5.90
2018-03-19T09:06:08.742Z,5.60
2018-03-19T09:08:36.267Z,5.50
2018-03-19T09:11:04.588Z,5.30
2018-03-19T09:13:32.110Z,5.30
2018-03-19T09:16:00.422Z,4.80
2018-03-19T09:18:27.954Z,4.70
2018-03-19T09:20:55.503Z,4.90
2018-03-19T09:23:23.921Z,4.70
2018-03-19T09:25:51.471Z,4.70
2018-03-19T09:28:19.008Z,4.60
2018-03-19T09:30:47.322Z,4.80
2018-03-19T09:33:14.939Z,4.80
2018-03-19T09:35:43.237Z,5.00
2018-03-19T09:38:10.798Z,4.90
2018-03-19T09:40:38.472Z,5.20
2018-03-19T09:43:06.273Z,5.20
2018-03-19T09:45:33.807Z,5.30
2018-03-19T09:48:01.352Z,5.20
2018-03-19T09:50:28.886Z,5.20
2018-03-19T09:52:57.205Z,5.30
2018-03-19T09:55:24.750Z,5.30
2018-03-19T09:57:52.284Z,5.40
2018-03-19T10:00:19.802Z,5.50
2018-03-19T10:02:47.333Z,5.30
2018-03-19T10:05:14.883Z,5.30
2018-03-19T10:07:42.452Z,5.40
2018-03-19T10:10:09.984Z,5.50
2018-03-19T10:12:37.538Z,5.60
2018-03-19T10:15:05.076Z,5.70
2018-03-19T10:17:33.380Z,5.70
2018-03-19T10:20:00.921Z,5.70
2018-03-19T10:22:29.234Z,5.80
2018-03-19T10:24:56.783Z,5.80
2018-03-19T10:27:24.311Z,5.70
2018-03-19T10:29:52.628Z,5.80
2018-03-19T10:32:20.156Z,5.80
2018-03-19T10:34:47.690Z,5.70
2018-03-19T10:37:15.197Z,5.70
2018-03-19T10:39:42.751Z,5.80
2018-03-19T10:42:10.292Z,5.90
2018-03-19T10:44:37.825Z,6.00
2018-03-19T10:47:05.370Z,6.00
2018-03-19T10:49:32.999Z,6.10
2018-03-19T10:52:00.547Z,6.20
2018-03-19T10:54:28.095Z,6.20
2018-03-19T10:56:55.983Z,6.20
2018-03-19T10:59:23.557Z,6.30
2018-03-19T11:01:57.500Z,6.50
2018-03-19T11:04:25.048Z,6.50
2018-03-19T11:07:00.120Z,6.60
2018-03-19T11:09:27.697Z,6.70
2018-03-19T11:11:55.293Z,6.70
2018-03-19T11:14:22.772Z,6.80
2018-03-19T11:16:50.321Z,6.90
2018-03-19T11:19:17.858Z,6.80
2018-03-19T11:21:45.414Z,6.80
2018-03-19T11:24:12.947Z,6.80
2018-03-19T11:26:40.520Z,6.80
2018-03-19T11:29:08.064Z,6.80
2018-03-19T11:31:35.618Z,6.90
2018-03-19T11:34:03.155Z,6.80
2018-03-19T11:36:31.586Z,6.70
2018-03-19T11:38:59.122Z,6.70
2018-03-19T11:41:26.668Z,6.70
2018-03-19T11:43:54.206Z,6.80
2018-03-19T11:46:22.509Z,6.80
2018-03-19T11:48:50.054Z,6.80
2018-03-19T11:51:18.349Z,6.70
2018-03-19T11:53:45.901Z,6.70
2018-03-19T11:56:13.446Z,6.70
2018-03-19T11:58:40.993Z,6.60
2018-03-19T12:01:09.334Z,6.50
2018-03-19T12:03:36.893Z,6.50
2018-03-19T12:06:04.436Z,6.60
2018-03-19T12:08:31.966Z,6.50
2018-03-19T12:10:59.529Z,6.50
2018-03-19T12:13:27.116Z,6.50
2018-03-19T12:15:54.650Z,6.40
2018-03-19T12:18:22.197Z,6.40
2018-03-19T12:20:50.504Z,6.30
2018-03-19T12:23:18.068Z,6.30
2018-03-19T12:25:45.607Z,6.30
2018-03-19T12:28:13.171Z,6.30
2018-03-19T12:30:40.705Z,6.00
2018-03-19T12:33:09.041Z,6.30
2018-03-19T12:35:37.335Z,6.40
2018-03-19T12:38:04.898Z,6.40
2018-03-19T12:40:33.209Z,6.20
2018-03-19T12:43:00.747Z,6.10
2018-03-19T12:45:29.029Z,6.30
2018-03-19T12:47:57.452Z,6.00
2018-03-19T12:50:24.979Z,6.00
2018-03-19T12:52:52.522Z,6.20
2018-03-19T12:55:20.837Z,6.50
2018-03-19T12:57:48.376Z,6.60
2018-03-19T13:00:16.679Z,6.60
2018-03-19T13:02:44.228Z,6.60
2018-03-19T13:05:11.759Z,6.70
2018-03-19T13:07:40.106Z,6.20
2018-03-19T13:10:07.676Z,6.30
2018-03-19T13:12:35.294Z,6.30
2018-03-19T13:15:02.850Z,6.50
2018-03-19T13:17:30.382Z,6.20
2018-03-19T13:19:57.922Z,6.30
2018-03-19T13:22:26.218Z,6.20
2018-03-19T13:24:54.517Z,6.30
2018-03-19T13:27:22.055Z,6.30
2018-03-19T13:29:49.644Z,6.40
2018-03-19T13:32:17.202Z,6.30
2018-03-19T13:34:44.763Z,6.20
2018-03-19T13:37:12.280Z,6.10
2018-03-19T13:39:40.594Z,6.20
2018-03-19T13:42:08.169Z,6.20
2018-03-19T13:44:36.490Z,6.10
2018-03-19T13:47:04.810Z,6.00
2018-03-19T13:49:32.359Z,6.00
2018-03-19T13:51:59.918Z,6.10
2018-03-19T13:54:27.470Z,5.80
2018-03-19T13:56:55.004Z,6.00
2018-03-19T13:59:23.327Z,6.10
2018-03-19T14:01:50.885Z,6.10
2018-03-19T14:04:18.467Z,6.10
2018-03-19T14:06:46.010Z,6.10
2018-03-19T14:09:13.546Z,6.10
2018-03-19T14:11:41.096Z,6.20
2018-03-19T14:14:08.627Z,6.30
2018-03-19T14:16:36.962Z,6.60
2018-03-19T14:19:04.481Z,6.60
2018-03-19T14:21:32.086Z,6.40
2018-03-19T14:24:00.455Z,6.60
2018-03-19T14:26:28.028Z,6.60
2018-03-19T14:28:56.379Z,6.60
2018-03-19T14:31:24.659Z,6.10
2018-03-19T14:33:52.190Z,6.00
2018-03-19T14:36:20.523Z,6.00
2018-03-19T14:38:48.165Z,6.00
2018-03-19T14:41:15.729Z,6.00
2018-03-19T14:43:43.277Z,6.10
2018-03-19T14:46:10.841Z,5.90
2018-03-19T14:48:38.375Z,5.60
2018-03-19T14:51:05.949Z,5.70
2018-03-19T14:53:33.491Z,5.70
2018-03-19T14:56:01.081Z,5.90
2018-03-19T14:58:28.625Z,5.80
2018-03-19T15:00:56.178Z,5.60
2018-03-19T15:03:23.715Z,5.50
2018-03-19T15:05:52.028Z,5.50
2018-03-19T15:08:19.606Z,5.40
2018-03-19T15:10:47.228Z,5.60
2018-03-19T15:13:14.785Z,5.90
2018-03-19T15:15:42.308Z,5.90
2018-03-19T15:18:09.847Z,5.90
2018-03-19T15:20:37.494Z,5.80
2018-03-19T15:23:05.043Z,5.80
2018-03-19T15:25:32.574Z,5.70
2018-03-19T15:28:00.137Z,5.90
2018-03-19T15:30:28.442Z,5.80
2018-03-19T15:32:56.000Z,5.80
2018-03-19T15:35:23.546Z,5.70
2018-03-19T15:37:51.089Z,5.80
2018-03-19T15:40:18.608Z,5.80
2018-03-19T15:42:46.147Z,5.80
2018-03-19T15:45:13.801Z,5.90
2018-03-19T15:47:41.362Z,6.00
2018-03-19T15:50:08.912Z,6.20
2018-03-19T15:52:36.479Z,6.30
2018-03-19T15:55:04.019Z,6.40
2018-03-19T15:57:31.566Z,6.30
2018-03-19T15:59:59.100Z,6.40
2018-03-19T16:02:26.639Z,6.20
2018-03-19T16:04:54.275Z,6.00
2018-03-19T16:07:21.823Z,5.90
2018-03-19T16:09:49.369Z,5.70
2018-03-19T16:12:16.921Z,5.70
2018-03-19T16:14:44.471Z,5.80
2018-03-19T16:17:12.784Z,5.90
2018-03-19T16:19:40.327Z,5.90
2018-03-19T16:22:07.877Z,5.80
2018-03-19T16:24:35.422Z,5.80
2018-03-19T16:27:03.713Z,5.60
2018-03-19T16:29:31.253Z,5.60
2018-03-19T16:31:59.577Z,5.40
2018-03-19T16:34:27.245Z,5.40
2018-03-19T16:36:54.774Z,5.50
2018-03-19T16:39:22.311Z,5.30
2018-03-19T16:41:50.617Z,5.20
2018-03-19T16:44:18.192Z,5.10
2018-03-19T16:46:45.751Z,5.10
2018-03-19T16:49:13.298Z,5.30
2018-03-19T16:51:40.813Z,5.10
2018-03-19T16:54:08.328Z,5.10
2018-03-19T16:56:35.880Z,4.90
2018-03-19T16:59:03.446Z,4.80
2018-03-19T17:01:31.033Z,4.70
2018-03-19T17:03:58.568Z,4.60
2018-03-19T17:06:26.124Z,4.40
2018-03-19T17:08:53.646Z,4.30
2018-03-19T17:11:22.062Z,4.40
2018-03-19T17:13:49.587Z,4.40
2018-03-19T17:16:17.904Z,4.10
2018-03-19T17:18:45.456Z,4.10
2018-03-19T17:21:12.994Z,3.70
2018-03-19T17:23:40.533Z,3.70
2018-03-19T17:26:08.852Z,3.30
2018-03-19T17:28:36.373Z,3.20
2018-03-19T17:31:04.690Z,3.40
2018-03-19T17:33:32.235Z,3.40
2018-03-19T17:35:59.762Z,3.40
2018-03-19T17:38:28.071Z,3.50
2018-03-19T17:40:55.584Z,3.50
2018-03-19T17:43:23.123Z,3.50
2018-03-19T17:45:50.644Z,3.60
2018-03-19T17:48:18.187Z,3.50
2018-03-19T17:50:45.734Z,3.50
2018-03-19T17:53:14.048Z,3.30
2018-03-19T17:55:41.568Z,3.30
2018-03-19T17:58:09.989Z,3.30
2018-03-19T18:00:37.523Z,3.30
2018-03-19T18:03:05.071Z,3.30
2018-03-19T18:05:33.363Z,3.20
2018-03-19T18:08:00.939Z,3.20
2018-03-19T18:10:28.463Z,3.20
2018-03-19T18:12:57.215Z,2.90
2018-03-19T18:15:24.737Z,2.90
2018-03-19T18:17:52.296Z,2.80
2018-03-19T18:20:19.840Z,2.70
2018-03-19T18:22:47.386Z,2.60
2018-03-19T18:25:15.804Z,2.50
2018-03-19T18:27:43.470Z,2.50
2018-03-19T18:30:10.994Z,2.50
2018-03-19T18:32:39.285Z,2.60
2018-03-19T18:35:06.857Z,2.50
2018-03-19T18:37:34.399Z,2.40
2018-03-19T18:40:02.035Z,2.40
2018-03-19T18:42:30.327Z,2.30
2018-03-19T18:44:57.920Z,2.30
2018-03-19T18:47:25.483Z,2.20
2018-03-19T18:49:53.053Z,2.20
2018-03-19T18:52:20.575Z,2.20
2018-03-19T18:54:48.132Z,2.10
2018-03-19T18:57:15.644Z,2.10
2018-03-19T18:59:43.183Z,2.10
2018-03-19T19:02:10.711Z,2.00
2018-03-19T19:04:38.262Z,2.00
2018-03-19T19:07:05.790Z,1.90
2018-03-19T19:09:33.364Z,1.90
2018-03-19T19:12:01.656Z,1.80
2018-03-19T19:14:29.191Z,1.80
2018-03-19T19:16:56.704Z,1.80
2018-03-19T19:19:24.256Z,1.70
2018-03-19T19:21:51.818Z,1.70
2018-03-19T19:24:19.346Z,1.60
2018-03-19T19:26:47.641Z,1.50
2018-03-19T19:29:15.211Z,1.50
2018-03-19T19:31:42.871Z,1.60
2018-03-19T19:34:10.395Z,1.50
2018-03-19T19:36:38.708Z,1.50
2018-03-19T19:39:06.262Z,1.50
2018-03-19T19:41:33.935Z,1.50
2018-03-19T19:44:01.488Z,1.30
2018-03-19T19:46:29.089Z,1.20
2018-03-19T19:48:56.577Z,1.20
2018-03-19T19:51:24.137Z,1.30
2018-03-19T19:53:51.652Z,1.30
2018-03-19T19:56:19.200Z,1.30
2018-03-19T19:58:46.735Z,1.10
2018-03-19T20:01:14.300Z,1.00
2018-03-19T20:03:41.843Z,1.00
2018-03-19T20:06:09.418Z,1.10
2018-03-19T20:08:36.962Z,1.00
2018-03-19T20:11:04.505Z,1.10
2018-03-19T20:13:32.790Z,0.60
2018-03-19T20:16:00.372Z,0.60
2018-03-19T20:18:27.932Z,0.70
2018-03-19T20:20:55.475Z,0.80
2018-03-19T20:23:23.027Z,0.70
2018-03-19T20:25:51.351Z,0.60
2018-03-19T20:28:18.992Z,0.60
2018-03-19T20:30:46.548Z,0.60
2018-03-19T20:33:14.113Z,0.70
2018-03-19T20:35:41.644Z,0.70
2018-03-19T20:38:09.204Z,0.60
2018-03-19T20:40:37.063Z,0.60
2018-03-19T20:43:04.615Z,0.60
2018-03-19T20:45:32.904Z,0.60
2018-03-19T20:48:00.450Z,0.50
2018-03-19T20:50:28.788Z,0.50
2018-03-19T20:52:56.427Z,0.40
2018-03-19T20:55:23.986Z,0.30
2018-03-19T20:57:51.547Z,0.40
2018-03-19T21:00:19.078Z,0.30
2018-03-19T21:02:46.623Z,0.30
2018-03-19T21:05:14.935Z,0.10
2018-03-19T21:07:42.494Z,0.10
2018-03-19T21:10:10.043Z,0.10
2018-03-19T21:12:37.576Z,0.00
2018-03-19T21:15:05.922Z,0.00
2018-03-19T21:17:33.460Z,0.00
2018-03-19T21:20:01.113Z,-0.10
2018-03-19T21:22:28.664Z,-0.10
2018-03-19T21:24:56.210Z,-0.20
2018-03-19T21:27:23.743Z,-0.30
2018-03-19T21:29:52.067Z,-0.40
2018-03-19T21:32:19.623Z,-0.50
2018-03-19T21:34:47.295Z,-0.50
2018-03-19T21:37:14.858Z,-0.40
2018-03-19T21:39:42.398Z,-0.50
2018-03-19T21:42:09.944Z,-0.70
2018-03-19T21:44:37.481Z,-0.60
2018-03-19T21:47:05.798Z,-0.50
2018-03-19T21:49:33.461Z,-0.50
2018-03-19T21:52:01.029Z,-0.40
2018-03-19T21:54:28.575Z,-0.50
2018-03-19T21:56:56.111Z,-0.50
2018-03-19T21:59:23.677Z,-0.60
2018-03-19T22:01:51.222Z,-0.70
2018-03-19T22:04:19.532Z,-0.80
2018-03-19T22:06:47.052Z,-0.80
2018-03-19T22:09:15.368Z,-0.90
2018-03-19T22:11:42.901Z,-1.00
2018-03-19T22:14:11.219Z,-0.90
2018-03-19T22:16:38.747Z,-0.90
2018-03-19T22:19:06.279Z,-1.00
2018-03-19T22:21:34.598Z,-1.10
2018-03-19T22:24:02.262Z,-1.10
2018-03-19T22:26:29.813Z,-1.10
2018-03-19T22:28:57.343Z,-1.10
2018-03-19T22:31:25.673Z,-1.00
2018-03-19T22:33:53.269Z,-1.00
2018-03-19T22:36:21.585Z,-1.00
2018-03-19T22:38:49.394Z,-1.00
2018-03-19T22:41:18.432Z,-1.10
2018-03-19T22:43:45.958Z,-1.10
2018-03-19T22:46:13.508Z,-1.10
2018-03-19T22:48:41.841Z,-1.20
2018-03-19T22:51:09.395Z,-1.20
2018-03-19T22:53:36.930Z,-1.30
2018-03-19T22:56:05.241Z,-1.30
2018-03-19T22:58:32.756Z,-1.30
2018-03-19T23:01:01.097Z,-1.50
2018-03-19T23:03:28.742Z,-1.50
2018-03-19T23:05:56.402Z,-1.60
2018-03-19T23:08:23.945Z,-1.70
2018-03-19T23:10:51.488Z,-1.70
2018-03-19T23:13:19.897Z,-1.70
2018-03-19T23:15:47.455Z,-1.60
2018-03-19T23:18:15.005Z,-1.80
2018-03-19T23:20:42.536Z,-1.80
2018-03-19T23:23:10.851Z,-1.80
2018-03-19T23:25:38.408Z,-1.80
2018-03-19T23:28:05.938Z,-1.80
2018-03-19T23:30:34.262Z,-1.70
2018-03-19T23:33:01.789Z,-1.80
2018-03-19T23:35:29.364Z,-1.70
2018-03-19T23:37:56.923Z,-1.80
2018-03-19T23:40:24.475Z,-1.80
2018-03-19T23:42:52.023Z,-1.80
2018-03-19T23:45:19.540Z,-1.80
2018-03-19T23:47:47.071Z,-1.80
2018-03-19T23:50:14.628Z,-1.90
2018-03-19T23:52:42.159Z,-1.90
2018-03-19T23:55:09.691Z,-2.00
2018-03-19T23:57:38.000Z,-2.10
